Route Details

Aircraft Information
Group: North America Fleet
Types: B738, B752, B762, B763
Route Data
Distance: 1575nm
Duration: 0h 00m
Origin METAR: TJSJ 190956Z 00000KT 10SM SCT027 SCT065 SCT090 28/24 A2990 RMK AO2 RAB51E52 SLP125 P0000 T02830239
Dest. METAR: KCVG 191052Z 17004KT 10SM SCT160 BKN250 24/22 A3023 RMK AO2 SLP223 T02440222
Freight Data
(for Jun 19, 2024)
Load Factor:
45%
Manifested Cargo: 37,880lbs
Financial History
Total Freight: 0lbs
Average Load: 0lbs/flt
Fuel Used: 0lbs
Avg. Fuel Used: 0lbs/flt
Fuel Expense: $0
Avg. Fuel Expense: $0
Avg. Fuel Cost: $0/lbs
Total Gross Income: $0
Pilot Pay: $0
Total Expenses: $0
Total Revenue: $0
Average Revenue: $0

Capitol Logistics 445




TJSJ
Luis Munoz Marin International Airport
San Juan, PR
KCVG
Cincinnati/Northern Kentucky International Airport
Covington, US

Activity Log

Date Flight Route Aircraft Duration
No Flights Yet